Time;durP1;ratioP1;P1;durP2;ratioP2;P2;SDS_P1;SDS_P2;PMS_P1;PMS_P2;Temp;Humidity;BMP_temperature;BMP_pressure;BME280_temperature;BME280_humidity;BME280_pressure;Samples;Min_cycle;Max_cycle;Signal;HPM_P1;HPM_P2
2023/10/29 03:05:28;;;;;;;1.45;0.90;;;;;;;12.63;100.00;98782.75;5084181;28;20405;-67
2023/10/29 03:07:53;;;;;;;2.67;0.80;;;;;;;12.65;100.00;98794.09;5090394;28;20498;-67
2023/10/29 03:10:19;;;;;;;1.77;0.80;;;;;;;12.69;100.00;98795.16;5079895;28;20082;-68
2023/10/29 03:12:44;;;;;;;2.10;0.60;;;;;;;12.75;100.00;98785.84;5069797;28;20039;-68
2023/10/29 03:15:09;;;;;;;1.45;1.00;;;;;;;12.82;100.00;98785.50;5069802;28;20108;-68
2023/10/29 03:17:35;;;;;;;0.75;0.60;;;;;;;12.85;100.00;98807.44;5069230;28;20021;-68
2023/10/29 03:20:00;;;;;;;1.17;0.90;;;;;;;12.88;100.00;98792.50;5082385;28;20491;-68
2023/10/29 03:22:25;;;;;;;2.65;1.30;;;;;;;12.97;100.00;98803.50;5089731;28;20395;-69
2023/10/29 03:24:51;;;;;;;2.45;1.00;;;;;;;13.00;100.00;98809.16;5089839;28;20024;-68
2023/10/29 03:27:16;;;;;;;3.78;1.33;;;;;;;12.97;100.00;98809.75;5088555;28;20711;-68
2023/10/29 03:29:41;;;;;;;3.38;1.05;;;;;;;12.98;100.00;98811.34;5089717;28;20052;-68
2023/10/29 03:32:07;;;;;;;3.13;0.80;;;;;;;13.00;100.00;98814.59;5081922;28;20101;-69
2023/10/29 03:34:32;;;;;;;2.97;1.10;;;;;;;12.98;100.00;98821.41;5080354;28;20421;-69
2023/10/29 03:36:58;;;;;;;1.90;0.82;;;;;;;12.96;100.00;98818.19;5089580;28;20032;-68
2023/10/29 03:39:23;;;;;;;1.80;0.90;;;;;;;12.97;100.00;98808.94;5089408;28;20028;-69
2023/10/29 03:41:48;;;;;;;2.60;1.00;;;;;;;12.94;100.00;98810.34;5089542;28;20027;-69
2023/10/29 03:44:13;;;;;;;3.35;1.10;;;;;;;12.89;100.00;98811.22;5089345;28;20062;-69
2023/10/29 03:46:39;;;;;;;4.50;1.08;;;;;;;12.85;100.00;98809.38;5082009;28;20108;-70
2023/10/29 03:49:04;;;;;;;5.60;1.00;;;;;;;12.83;100.00;98804.22;5067654;28;20036;-70
2023/10/29 03:51:30;;;;;;;1.75;1.00;;;;;;;12.84;100.00;98800.41;5068869;28;20037;-70
2023/10/29 03:53:55;;;;;;;1.90;0.90;;;;;;;12.81;100.00;98794.75;5063446;28;20465;-70
2023/10/29 03:56:20;;;;;;;2.35;0.80;;;;;;;12.77;100.00;98799.94;5048664;28;20108;-69
2023/10/29 03:58:46;;;;;;;1.88;1.00;;;;;;;12.81;100.00;98806.41;5049055;28;20461;-69
2023/10/29 04:01:14;;;;;;;7.13;0.80;;;;;;;12.83;100.00;98804.22;5030678;28;20046;-69
2023/10/29 04:03:40;;;;;;;1.48;0.80;;;;;;;12.77;100.00;98799.94;5001529;28;20054;-69
2023/10/29 04:06:12;;;;;;;3.35;1.10;;;;;;;12.79;100.00;98815.91;5027973;28;20057;-69
2023/10/29 04:08:38;;;;;;;4.85;1.17;;;;;;;12.82;100.00;98815.34;5029001;28;20030;-69
2023/10/29 04:11:04;;;;;;;3.33;1.10;;;;;;;12.85;100.00;98803.94;5028947;28;20036;-68
2023/10/29 04:13:31;;;;;;;3.13;0.60;;;;;;;12.85;100.00;98802.03;5028682;28;20038;-69
2023/10/29 04:15:56;;;;;;;1.67;0.88;;;;;;;12.89;100.00;98819.34;5020706;28;20022;-69
2023/10/29 04:18:24;;;;;;;2.17;0.80;;;;;;;12.91;100.00;98816.34;5015368;28;20026;-69
2023/10/29 04:20:50;;;;;;;1.92;0.93;;;;;;;12.89;100.00;98822.06;5012415;28;20045;-69
2023/10/29 04:23:15;;;;;;;4.47;0.77;;;;;;;12.93;100.00;98820.38;5008859;28;20022;-69
2023/10/29 04:25:43;;;;;;;3.53;1.23;;;;;;;12.96;100.00;98840.69;4995818;28;20161;-69
2023/10/29 04:28:08;;;;;;;3.65;1.30;;;;;;;12.96;100.00;98834.47;4994506;28;20026;-69
2023/10/29 04:30:33;;;;;;;0.82;0.70;;;;;;;12.97;100.00;98836.06;4995524;28;20057;-69
2023/10/29 04:32:59;;;;;;;0.60;0.60;;;;;;;13.01;100.00;98826.25;4995742;28;20125;-69
2023/10/29 04:35:24;;;;;;;6.32;2.15;;;;;;;13.00;100.00;98814.59;5008448;28;20037;-69
2023/10/29 04:37:49;;;;;;;3.72;1.60;;;;;;;12.97;100.00;98820.63;5013918;28;20385;-69
2023/10/29 04:40:15;;;;;;;2.97;1.10;;;;;;;12.93;100.00;98841.28;5013654;28;20030;-69
2023/10/29 04:42:40;;;;;;;3.58;1.20;;;;;;;12.96;100.00;98827.13;5015161;28;20116;-69
2023/10/29 04:45:06;;;;;;;6.07;1.40;;;;;;;12.91;100.00;98825.28;5011547;28;20030;-69
2023/10/29 04:47:31;;;;;;;2.20;0.60;;;;;;;12.98;100.00;98832.25;4994799;28;20034;-69
2023/10/29 04:49:57;;;;;;;2.35;1.20;;;;;;;12.97;100.00;98830.63;4994878;28;20085;-69
2023/10/29 04:52:22;;;;;;;3.45;1.30;;;;;;;12.98;100.00;98845.84;4993828;28;20030;-69
2023/10/29 04:54:47;;;;;;;6.10;1.55;;;;;;;12.99;100.00;98834.69;4995185;28;20026;-69
2023/10/29 04:57:12;;;;;;;6.80;1.60;;;;;;;13.03;100.00;98832.19;4995239;28;20359;-69
2023/10/29 04:59:38;;;;;;;2.65;1.20;;;;;;;13.01;100.00;98831.69;4995008;28;20028;-69
2023/10/29 05:02:03;;;;;;;6.97;1.48;;;;;;;13.02;100.00;98841.47;4991949;28;20062;-70
2023/10/29 05:04:29;;;;;;;4.07;1.50;;;;;;;12.98;100.00;98838.50;4993313;28;20425;-69
2023/10/29 05:06:54;;;;;;;2.08;0.60;;;;;;;13.02;100.00;98836.03;4995125;28;20026;-69
2023/10/29 05:09:19;;;;;;;5.00;1.40;;;;;;;12.91;100.00;98838.84;4994549;28;20553;-69
2023/10/29 05:11:45;;;;;;;5.47;1.40;;;;;;;12.89;100.00;98857.34;4994768;28;20072;-69
2023/10/29 05:14:10;;;;;;;5.25;1.50;;;;;;;12.90;100.00;98860.88;4995021;28;20034;-69
2023/10/29 05:16:35;;;;;;;4.10;1.35;;;;;;;12.85;100.00;98878.03;5006395;28;20038;-69
2023/10/29 05:19:02;;;;;;;4.13;1.02;;;;;;;12.86;100.00;98885.06;5013217;28;20033;-69
2023/10/29 05:21:27;;;;;;;4.22;1.73;;;;;;;12.71;100.00;98883.34;5002588;28;20120;-68
2023/10/29 05:23:53;;;;;;;3.65;1.00;;;;;;;12.75;100.00;98878.94;4993489;28;20089;-69
2023/10/29 05:26:19;;;;;;;6.78;1.50;;;;;;;12.54;100.00;98894.59;4993008;28;20461;-68
2023/10/29 05:28:44;;;;;;;5.35;1.58;;;;;;;12.42;100.00;98891.47;4993968;28;20544;-69
2023/10/29 05:31:09;;;;;;;2.65;1.02;;;;;;;12.35;100.00;98875.53;5003264;28;20030;-68
2023/10/29 05:33:35;;;;;;;4.90;1.42;;;;;;;12.18;100.00;98865.13;5013963;28;20109;-68
2023/10/29 05:36:00;;;;;;;3.53;1.25;;;;;;;12.10;100.00;98863.00;5012868;28;20414;-69
2023/10/29 05:38:26;;;;;;;3.10;1.20;;;;;;;11.98;100.00;98882.34;5013887;28;20421;-68
2023/10/29 05:40:51;;;;;;;5.35;1.80;;;;;;;12.03;100.00;98881.47;5014143;28;20034;-69
2023/10/29 05:43:16;;;;;;;2.65;1.20;;;;;;;12.01;100.00;98902.66;5001294;28;20026;-69
2023/10/29 05:45:42;;;;;;;4.88;1.30;;;;;;;11.85;100.00;98900.03;4993562;28;20035;-69
2023/10/29 05:48:07;;;;;;;1.67;0.50;;;;;;;11.92;100.00;98910.53;4994219;28;20459;-69
2023/10/29 05:50:32;;;;;;;2.33;0.70;;;;;;;11.86;100.00;98906.25;4992837;28;20432;-69
2023/10/29 05:52:58;;;;;;;2.65;0.70;;;;;;;11.85;100.00;98910.03;4994184;28;20109;-69
2023/10/29 05:55:23;;;;;;;4.55;0.80;;;;;;;11.80;100.00;98923.63;4993958;28;20030;-68
2023/10/29 05:57:49;;;;;;;2.28;1.05;;;;;;;11.70;100.00;98932.63;4992874;28;20034;-69
2023/10/29 06:00:15;;;;;;;5.65;1.10;;;;;;;11.80;100.00;98935.28;4996720;28;20030;-69
2023/10/29 06:02:40;;;;;;;2.95;0.77;;;;;;;11.78;100.00;98937.47;4997376;28;20038;-70
2023/10/29 06:05:06;;;;;;;4.95;0.90;;;;;;;11.79;100.00;98954.53;4993450;28;20074;-69
2023/10/29 06:07:31;;;;;;;4.43;1.58;;;;;;;11.73;100.00;98950.22;4993710;28;20034;-69
2023/10/29 06:09:56;;;;;;;1.33;0.57;;;;;;;11.77;100.00;98952.09;4993925;28;20500;-70
2023/10/29 06:12:22;;;;;;;5.30;1.63;;;;;;;11.70;100.00;98967.88;5008724;28;20065;-69
2023/10/29 06:14:48;;;;;;;7.68;1.98;;;;;;;11.70;100.00;98960.53;5009159;28;20042;-69
2023/10/29 06:17:13;;;;;;;5.65;1.80;;;;;;;11.69;100.00;98974.38;5001403;28;20037;-69
2023/10/29 06:19:39;;;;;;;6.53;1.10;;;;;;;11.77;100.00;98972.97;5012179;28;20049;-70
2023/10/29 06:22:06;;;;;;;7.70;1.02;;;;;;;11.80;100.00;98977.81;4995231;28;20034;-69
2023/10/29 06:24:31;;;;;;;8.23;1.90;;;;;;;11.71;100.00;98985.72;4993363;28;20034;-69
2023/10/29 06:26:57;;;;;;;4.70;1.10;;;;;;;11.77;100.00;98984.59;4993670;28;20030;-69
2023/10/29 06:29:25;;;;;;;7.30;2.20;;;;;;;11.70;100.00;98986.84;4993306;28;20030;-69
2023/10/29 06:31:50;;;;;;;7.13;1.00;;;;;;;11.73;100.00;98986.28;4998423;28;20033;-69
2023/10/29 06:34:16;;;;;;;5.75;2.33;;;;;;;11.70;100.00;98994.97;5013200;28;20030;-69
2023/10/29 06:36:41;;;;;;;5.07;1.10;;;;;;;11.75;100.00;98986.78;5009201;28;20036;-69
2023/10/29 06:39:06;;;;;;;5.20;2.28;;;;;;;11.74;100.00;98996.00;5012874;28;20072;-68
2023/10/29 06:41:32;;;;;;;4.57;1.20;;;;;;;11.73;100.00;98999.00;5012886;28;20029;-69
2023/10/29 06:43:57;;;;;;;8.02;2.40;;;;;;;11.64;100.00;98999.59;4997958;28;20034;-69
2023/10/29 06:46:22;;;;;;;7.70;2.33;;;;;;;11.61;100.00;99012.84;5011722;28;20044;-69
2023/10/29 06:48:48;;;;;;;8.55;1.48;;;;;;;11.69;100.00;99017.72;5012963;28;20109;-70
2023/10/29 06:51:18;;;;;;;5.15;0.95;;;;;;;11.66;100.00;99016.34;5012900;28;20025;-69
2023/10/29 06:53:45;;;;;;;8.65;2.35;;;;;;;11.62;100.00;99028.84;5010152;28;20046;-70
2023/10/29 06:56:11;;;;;;;6.82;1.55;;;;;;;11.67;100.00;99033.41;5012866;28;20508;-70
2023/10/29 06:58:37;;;;;;;10.25;1.42;;;;;;;11.65;100.00;99019.34;5011338;28;20026;-70
2023/10/29 07:01:08;;;;;;;7.13;2.30;;;;;;;11.59;100.00;99036.72;5005996;28;20047;-69
2023/10/29 07:03:34;;;;;;;7.72;1.02;;;;;;;11.64;100.00;99044.81;4992713;28;20046;-70
2023/10/29 07:06:08;;;;;;;12.10;2.50;;;;;;;11.57;100.00;99049.72;4991505;28;20466;-69
2023/10/29 07:08:34;;;;;;;5.38;1.48;;;;;;;11.62;100.00;99047.78;4993480;28;20470;-69
2023/10/29 07:11:01;;;;;;;9.90;2.75;;;;;;;11.54;100.00;99061.91;4993187;28;20103;-70
2023/10/29 07:13:26;;;;;;;4.25;0.98;;;;;;;11.63;100.00;99067.59;4992831;28;20449;-69
2023/10/29 07:15:52;;;;;;;9.52;2.50;;;;;;;11.53;100.00;99066.53;4992860;28;20033;-69
2023/10/29 07:18:18;;;;;;;5.40;1.30;;;;;;;11.62;100.00;99068.66;4991831;28;20504;-69
2023/10/29 07:20:43;;;;;;;12.18;1.40;;;;;;;11.63;100.00;99070.31;5012210;28;20022;-69
2023/10/29 07:23:09;;;;;;;12.15;2.70;;;;;;;11.59;100.00;99061.09;5012698;28;20022;-69
2023/10/29 07:25:34;;;;;;;9.80;2.70;;;;;;;11.61;100.00;99061.63;5012354;28;20056;-69
2023/10/29 07:28:00;;;;;;;11.48;2.60;;;;;;;11.67;100.00;99082.19;5012607;28;20033;-70
2023/10/29 07:30:25;;;;;;;5.80;1.25;;;;;;;11.72;100.00;99086.81;5012516;28;20481;-70
2023/10/29 07:32:50;;;;;;;10.13;2.65;;;;;;;11.72;100.00;99093.03;5011490;28;20381;-70
2023/10/29 07:35:16;;;;;;;10.23;2.78;;;;;;;11.75;100.00;99114.16;5012504;28;20030;-69
2023/10/29 07:37:41;;;;;;;5.20;1.45;;;;;;;11.82;100.00;99100.31;5011981;28;20034;-69
2023/10/29 07:40:07;;;;;;;7.07;1.52;;;;;;;11.82;100.00;99101.13;4992971;28;20468;-69
2023/10/29 07:42:35;;;;;;;13.15;3.30;;;;;;;11.81;100.00;99113.06;4992612;28;20034;-69
2023/10/29 07:45:01;;;;;;;8.98;3.00;;;;;;;11.84;100.00;99101.66;4992826;28;20054;-69
2023/10/29 07:47:26;;;;;;;11.07;2.72;;;;;;;11.81;100.00;99113.06;4992513;28;20124;-70
2023/10/29 07:49:51;;;;;;;4.30;1.15;;;;;;;11.92;100.00;99121.16;5009745;28;20038;-69
2023/10/29 07:52:17;;;;;;;9.68;2.60;;;;;;;11.92;100.00;99110.31;5014625;28;20041;-69
2023/10/29 07:54:42;;;;;;;9.95;2.83;;;;;;;11.94;100.00;99113.56;5014547;28;20029;-69
2023/10/29 07:57:08;;;;;;;9.35;2.58;;;;;;;11.97;100.00;99124.69;5015926;28;20042;-70
2023/10/29 07:59:36;;;;;;;7.30;1.35;;;;;;;12.04;100.00;99125.19;5015696;28;20381;-69
2023/10/29 08:02:01;;;;;;;6.30;1.75;;;;;;;12.10;100.00;99125.19;4995074;28;20517;-69
2023/10/29 08:04:28;;;;;;;3.50;0.95;;;;;;;12.15;100.00;99119.72;5010253;28;20046;-69
2023/10/29 08:06:53;;;;;;;7.57;1.48;;;;;;;12.19;100.00;99124.31;4998441;28;20058;-69
2023/10/29 08:09:19;;;;;;;7.82;2.35;;;;;;;12.19;100.00;99128.94;4996152;28;20030;-69
2023/10/29 08:11:44;;;;;;;7.97;1.33;;;;;;;12.26;100.00;99131.34;4995222;28;20038;-70
2023/10/29 08:14:09;;;;;;;8.55;2.42;;;;;;;12.32;100.00;99135.66;4995421;28;20039;-70
2023/10/29 08:16:34;;;;;;;5.55;1.20;;;;;;;12.34;100.00;99144.34;4996126;28;20030;-70
2023/10/29 08:19:00;;;;;;;9.00;2.65;;;;;;;12.35;100.00;99145.94;4995889;28;20022;-70
2023/10/29 08:21:25;;;;;;;10.07;2.70;;;;;;;12.40;100.00;99148.66;5001663;28;20040;-70
2023/10/29 08:23:51;;;;;;;9.73;2.63;;;;;;;12.43;100.00;99169.78;5001928;28;20050;-68
2023/10/29 08:26:16;;;;;;;13.25;2.70;;;;;;;12.47;100.00;99164.59;5010794;28;20036;-70
2023/10/29 08:28:41;;;;;;;9.88;2.53;;;;;;;12.52;100.00;99176.25;5015263;28;20026;-70
2023/10/29 08:31:08;;;;;;;8.20;1.73;;;;;;;12.57;100.00;99162.66;5000441;28;20031;-71
2023/10/29 08:33:33;;;;;;;11.55;2.67;;;;;;;12.56;100.00;99163.75;4995850;28;20518;-70
2023/10/29 08:35:58;;;;;;;13.45;3.10;;;;;;;12.57;100.00;99168.06;4995729;28;20065;-73
2023/10/29 08:38:24;;;;;;;9.20;2.47;;;;;;;12.56;100.00;99155.63;4994438;28;20049;-74
2023/10/29 08:40:49;;;;;;;10.88;2.60;;;;;;;12.58;100.00;99161.56;5014126;28;20022;-73
2023/10/29 08:43:15;;;;;;;11.68;2.78;;;;;;;12.61;100.00;99167.53;5015115;28;20026;-72
2023/10/29 08:45:41;;;;;;;8.70;1.00;;;;;;;12.68;100.00;99187.03;5006946;28;20041;-71
2023/10/29 08:48:07;;;;;;;8.82;2.70;;;;;;;12.69;100.00;99191.38;4992677;28;20038;-71
2023/10/29 08:50:32;;;;;;;10.98;2.70;;;;;;;12.70;100.00;99207.38;5006986;28;20117;-70
2023/10/29 08:52:58;;;;;;;9.65;2.50;;;;;;;12.68;100.00;99198.72;5013238;28;20413;-71
2023/10/29 08:55:23;;;;;;;9.02;2.63;;;;;;;12.74;100.00;99204.91;5014525;28;20092;-70
2023/10/29 08:57:49;;;;;;;9.27;2.25;;;;;;;12.82;100.00;99211.63;5014211;28;20474;-71
2023/10/29 09:00:15;;;;;;;8.00;2.53;;;;;;;12.86;100.00;99210.00;5014628;28;20113;-71
2023/10/29 09:02:40;;;;;;;13.02;2.70;;;;;;;12.91;100.00;99227.06;4994147;28;20053;-72
2023/10/29 09:05:07;;;;;;;9.05;2.47;;;;;;;12.96;100.00;99230.84;5009753;28;20133;-73
2023/10/29 09:07:33;;;;;;;7.38;2.40;;;;;;;12.97;100.00;99237.88;5014595;28;20033;-72
2023/10/29 09:09:58;;;;;;;9.77;2.47;;;;;;;13.06;100.00;99241.66;5003240;28;20034;-71
2023/10/29 09:12:25;;;;;;;8.48;2.42;;;;;;;13.06;100.00;99242.47;4995065;28;20117;-72
2023/10/29 09:14:50;;;;;;;9.60;2.60;;;;;;;13.07;100.00;99244.09;4994667;28;20030;-70
2023/10/29 09:17:16;;;;;;;8.52;2.28;;;;;;;13.04;100.00;99255.50;4994978;28;20026;-70
2023/10/29 09:19:41;;;;;;;10.23;2.65;;;;;;;13.01;100.00;99257.97;5007103;28;20037;-70
2023/10/29 09:22:06;;;;;;;10.77;1.67;;;;;;;13.03;100.00;99262.03;5010341;28;20073;-70
2023/10/29 09:24:32;;;;;;;9.82;2.67;;;;;;;12.92;100.00;99257.75;5014121;28;20125;-70
2023/10/29 09:26:57;;;;;;;8.63;2.47;;;;;;;12.96;100.00;99258.81;5014373;28;20029;-70
2023/10/29 09:29:23;;;;;;;11.05;2.90;;;;;;;12.98;100.00;99255.81;5014065;28;20495;-71
2023/10/29 09:31:51;;;;;;;9.50;2.80;;;;;;;13.06;100.00;99256.03;5002968;28;20037;-69
2023/10/29 09:34:17;;;;;;;10.95;2.50;;;;;;;13.11;100.00;99252.47;4994254;28;20140;-70
2023/10/29 09:36:43;;;;;;;5.07;0.90;;;;;;;13.21;100.00;99254.31;4994056;28;20470;-71
2023/10/29 09:39:09;;;;;;;9.93;2.42;;;;;;;13.28;100.00;99261.03;4992057;28;20042;-72
2023/10/29 09:41:37;;;;;;;11.85;2.85;;;;;;;13.25;100.00;99267.03;5005553;28;20030;-71
2023/10/29 09:44:05;;;;;;;8.25;2.42;;;;;;;13.23;100.00;99258.38;4983836;28;20053;-71
2023/10/29 09:46:32;;;;;;;9.27;2.72;;;;;;;13.22;100.00;99245.06;4992626;28;20473;-71
2023/10/29 09:48:58;;;;;;;11.80;2.90;;;;;;;13.24;100.00;99264.59;4994214;28;20088;-70
2023/10/29 09:51:24;;;;;;;8.93;1.40;;;;;;;13.28;100.00;99261.03;4990769;28;20465;-72
2023/10/29 09:53:51;;;;;;;8.43;2.60;;;;;;;13.29;100.00;99264.59;4993266;28;20067;-72
2023/10/29 09:56:17;;;;;;;9.55;1.33;;;;;;;13.36;100.00;99270.56;4992927;28;20030;-72
2023/10/29 09:58:42;;;;;;;10.70;2.50;;;;;;;13.30;100.00;99258.88;4993928;28;20092;-70
2023/10/29 10:01:08;;;;;;;10.57;2.70;;;;;;;13.29;100.00;99235.50;4998001;28;20049;-71
2023/10/29 10:03:33;;;;;;;8.18;2.42;;;;;;;13.25;100.00;99229.00;5000383;28;20046;-72
2023/10/29 10:06:00;;;;;;;9.15;2.50;;;;;;;13.26;100.00;99236.09;5012409;28;20030;-72
2023/10/29 10:08:29;;;;;;;10.07;2.55;;;;;;;13.26;100.00;99233.38;5013638;28;20053;-72
2023/10/29 10:10:56;;;;;;;12.45;2.60;;;;;;;13.23;100.00;99233.94;5013582;28;20026;-71
2023/10/29 10:13:41;;;;;;;9.70;2.60;;;;;;;13.25;100.00;99245.31;5010067;28;20497;-72
2023/10/29 10:16:11;;;;;;;9.77;2.75;;;;;;;13.22;100.00;99248.59;5009346;28;20172;-75
2023/10/29 10:18:50;;;;;;;12.82;2.85;;;;;;;13.26;100.00;99240.72;5010989;28;20377;-70
2023/10/29 10:21:16;;;;;;;12.75;2.78;;;;;;;13.17;100.00;99232.34;5013431;28;20022;-70
